SAS5432 NZWN-NZCH
Flight info
| Callsign | SAS5432 |
|---|---|
| Flight time | 0h 51m |
| Altitude | 16000 |
| Route | VENAM Y804 ATBUB H159 MESIX |
| Aircraft | AT76/M-SDFGIRY/S |
Departure
| Time | 2026-05-08 04:34 |
|---|---|
| Airport | Wellington International Airport (NZWN) |
Arrival
| Time | 2026-05-08 05:26 |
|---|---|
| Airport | Christchurch International Airport (NZCH) |
| Time | Latitude | Longitude | Altitude | Speed | Heading |
|---|---|---|---|---|---|
| 2026-05-08 04:24 | -41.33145 | 174.81047 | 23 ft | 0 kts | 115° |
| 2026-05-08 04:28 | -41.33137 | 174.81030 | 23 ft | 2 kts | 131° |
| 2026-05-08 04:29 | -41.33124 | 174.81016 | 23 ft | 2 kts | 162° |
| 2026-05-08 04:29 | -41.33108 | 174.81015 | 23 ft | 2 kts | 196° |
| 2026-05-08 04:29 | -41.33097 | 174.81020 | 24 ft | 1 kts | 213° |
| 2026-05-08 04:29 | -41.33098 | 174.81020 | 25 ft | 0 kts | 214° |
| 2026-05-08 04:30 | -41.33111 | 174.81007 | 26 ft | 6 kts | 215° |
| 2026-05-08 04:30 | -41.33117 | 174.80986 | 27 ft | 6 kts | 286° |
| 2026-05-08 04:30 | -41.33108 | 174.80941 | 24 ft | 6 kts | 276° |
| 2026-05-08 04:31 | -41.33103 | 174.80866 | 24 ft | 9 kts | 274° |
| 2026-05-08 04:31 | -41.33110 | 174.80798 | 24 ft | 9 kts | 231° |
| 2026-05-08 04:31 | -41.33205 | 174.80783 | 24 ft | 18 kts | 184° |
| 2026-05-08 04:31 | -41.33345 | 174.80776 | 25 ft | 17 kts | 182° |
| 2026-05-08 04:32 | -41.33456 | 174.80768 | 24 ft | 8 kts | 182° |
| 2026-05-08 04:32 | -41.33499 | 174.80747 | 24 ft | 9 kts | 226° |
| 2026-05-08 04:32 | -41.33526 | 174.80668 | 24 ft | 6 kts | 278° |
| 2026-05-08 04:32 | -41.33512 | 174.80644 | 23 ft | 5 kts | 326° |
| 2026-05-08 04:33 | -41.33497 | 174.80637 | 25 ft | 6 kts | 351° |
| 2026-05-08 04:33 | -41.33475 | 174.80638 | 23 ft | 0 kts | 1° |
| 2026-05-08 04:33 | -41.33437 | 174.80640 | 23 ft | 26 kts | 3° |
| 2026-05-08 04:34 | -41.33054 | 174.80666 | 24 ft | 82 kts | 3° |
| 2026-05-08 04:34 | -41.32352 | 174.80707 | 169 ft | 111 kts | 5° |
| 2026-05-08 04:34 | -41.31567 | 174.80720 | 641 ft | 115 kts | 357° |
| 2026-05-08 04:34 | -41.30771 | 174.80600 | 1079 ft | 116 kts | 353° |
| 2026-05-08 04:35 | -41.29963 | 174.80574 | 1604 ft | 115 kts | 356° |
| 2026-05-08 04:35 | -41.29178 | 174.80632 | 2217 ft | 114 kts | 3° |
| 2026-05-08 04:35 | -41.28423 | 174.81134 | 2633 ft | 137 kts | 24° |
| 2026-05-08 04:35 | -41.27702 | 174.82133 | 3017 ft | 156 kts | 32° |
| 2026-05-08 04:36 | -41.26970 | 174.83216 | 3480 ft | 160 kts | 32° |
| 2026-05-08 04:36 | -41.26179 | 174.84303 | 3901 ft | 165 kts | 30° |
| 2026-05-08 04:36 | -41.25345 | 174.85378 | 4346 ft | 170 kts | 29° |
| 2026-05-08 04:36 | -41.24499 | 174.86517 | 4761 ft | 180 kts | 36° |
| 2026-05-08 04:37 | -41.23941 | 174.88086 | 5289 ft | 202 kts | 65° |
| 2026-05-08 04:37 | -41.24000 | 174.90056 | 5747 ft | 227 kts | 97° |
| 2026-05-08 04:37 | -41.24782 | 174.91952 | 6240 ft | 240 kts | 122° |
| 2026-05-08 04:37 | -41.25984 | 174.93475 | 6730 ft | 242 kts | 149° |
| 2026-05-08 04:38 | -41.27529 | 174.94174 | 7243 ft | 227 kts | 188° |
| 2026-05-08 04:38 | -41.29004 | 174.93712 | 7498 ft | 215 kts | 222° |
| 2026-05-08 04:38 | -41.30285 | 174.92724 | 7887 ft | 213 kts | 223° |
| 2026-05-08 04:38 | -41.31536 | 174.91714 | 8223 ft | 219 kts | 223° |
| 2026-05-08 04:39 | -41.32836 | 174.90632 | 8521 ft | 221 kts | 224° |
| 2026-05-08 04:39 | -41.34107 | 174.89500 | 8955 ft | 220 kts | 226° |
| 2026-05-08 04:39 | -41.35285 | 174.88255 | 9370 ft | 215 kts | 236° |
| 2026-05-08 04:39 | -41.36356 | 174.86840 | 9722 ft | 219 kts | 235° |
| 2026-05-08 04:40 | -41.37500 | 174.85459 | 10069 ft | 225 kts | 231° |
| 2026-05-08 04:40 | -41.38744 | 174.84165 | 10426 ft | 229 kts | 227° |
| 2026-05-08 04:40 | -41.40060 | 174.82958 | 10787 ft | 231 kts | 224° |
| 2026-05-08 04:40 | -41.41404 | 174.81781 | 11157 ft | 231 kts | 224° |
| 2026-05-08 04:41 | -41.42753 | 174.80615 | 11528 ft | 231 kts | 223° |
| 2026-05-08 04:41 | -41.44142 | 174.79515 | 11907 ft | 237 kts | 213° |
| 2026-05-08 04:41 | -41.45721 | 174.78815 | 12281 ft | 241 kts | 205° |
| 2026-05-08 04:41 | -41.47336 | 174.78233 | 12666 ft | 241 kts | 204° |
| 2026-05-08 04:42 | -41.48956 | 174.77663 | 13053 ft | 240 kts | 204° |
| 2026-05-08 04:42 | -41.50564 | 174.77054 | 13384 ft | 242 kts | 205° |
| 2026-05-08 04:42 | -41.52179 | 174.76393 | 13647 ft | 244 kts | 206° |
| 2026-05-08 04:42 | -41.53805 | 174.75706 | 13904 ft | 246 kts | 206° |
| 2026-05-08 04:43 | -41.55446 | 174.75019 | 14158 ft | 248 kts | 206° |
| 2026-05-08 04:43 | -41.57098 | 174.74327 | 14418 ft | 250 kts | 206° |
| 2026-05-08 04:43 | -41.58761 | 174.73633 | 14672 ft | 251 kts | 205° |
| 2026-05-08 04:43 | -41.60428 | 174.72938 | 14936 ft | 251 kts | 206° |
| 2026-05-08 04:44 | -41.62098 | 174.72240 | 15194 ft | 252 kts | 206° |
| 2026-05-08 04:44 | -41.63772 | 174.71540 | 15446 ft | 253 kts | 206° |
| 2026-05-08 04:44 | -41.65469 | 174.70827 | 15573 ft | 259 kts | 206° |
| 2026-05-08 04:44 | -41.67215 | 174.70098 | 15632 ft | 267 kts | 205° |
| 2026-05-08 04:45 | -41.69016 | 174.69349 | 15661 ft | 275 kts | 205° |
| 2026-05-08 04:45 | -41.70864 | 174.68576 | 15677 ft | 282 kts | 205° |
| 2026-05-08 04:45 | -41.72754 | 174.67785 | 15672 ft | 287 kts | 205° |
| 2026-05-08 04:45 | -41.74675 | 174.66981 | 15678 ft | 292 kts | 205° |
| 2026-05-08 04:46 | -41.76597 | 174.66176 | 15676 ft | 295 kts | 204° |
| 2026-05-08 04:46 | -41.78566 | 174.65355 | 15674 ft | 298 kts | 204° |
| 2026-05-08 04:46 | -41.80552 | 174.64523 | 15669 ft | 300 kts | 204° |
| 2026-05-08 04:46 | -41.82549 | 174.63684 | 15666 ft | 301 kts | 204° |
| 2026-05-08 04:47 | -41.84457 | 174.62630 | 15669 ft | 294 kts | 216° |
| 2026-05-08 04:47 | -41.86167 | 174.61162 | 15667 ft | 291 kts | 223° |
| 2026-05-08 04:47 | -41.87790 | 174.59541 | 15659 ft | 291 kts | 225° |
| 2026-05-08 04:47 | -41.89416 | 174.57912 | 15658 ft | 292 kts | 224° |
| 2026-05-08 04:48 | -41.91073 | 174.56315 | 15657 ft | 294 kts | 223° |
| 2026-05-08 04:48 | -41.92746 | 174.54740 | 15657 ft | 294 kts | 223° |
| 2026-05-08 04:48 | -41.94422 | 174.53166 | 15650 ft | 294 kts | 223° |
| 2026-05-08 04:48 | -41.96103 | 174.51590 | 15646 ft | 294 kts | 223° |
| 2026-05-08 04:49 | -41.97783 | 174.50014 | 15643 ft | 295 kts | 223° |
| 2026-05-08 04:49 | -41.99464 | 174.48436 | 15647 ft | 295 kts | 223° |
| 2026-05-08 04:49 | -42.01147 | 174.46855 | 15639 ft | 295 kts | 223° |
| 2026-05-08 04:49 | -42.02828 | 174.45277 | 15636 ft | 295 kts | 223° |
| 2026-05-08 04:50 | -42.03941 | 174.44230 | 15635 ft | 295 kts | 223° |
| 2026-05-08 04:51 | -42.11296 | 174.37304 | 15618 ft | 295 kts | 223° |
| 2026-05-08 04:51 | -42.12974 | 174.35721 | 15617 ft | 295 kts | 223° |
| 2026-05-08 04:51 | -42.14636 | 174.34153 | 15609 ft | 288 kts | 223° |
| 2026-05-08 04:51 | -42.16270 | 174.32633 | 15605 ft | 283 kts | 222° |
| 2026-05-08 04:52 | -42.17900 | 174.31143 | 15599 ft | 284 kts | 222° |
| 2026-05-08 04:52 | -42.19524 | 174.29623 | 15597 ft | 286 kts | 223° |
| 2026-05-08 04:52 | -42.21154 | 174.28073 | 15594 ft | 287 kts | 223° |
| 2026-05-08 04:52 | -42.22792 | 174.26520 | 15589 ft | 289 kts | 223° |
| 2026-05-08 04:53 | -42.24439 | 174.24958 | 15586 ft | 290 kts | 223° |
| 2026-05-08 04:53 | -42.26090 | 174.23393 | 15584 ft | 291 kts | 223° |
| 2026-05-08 04:53 | -42.27746 | 174.21823 | 15577 ft | 291 kts | 223° |
| 2026-05-08 04:53 | -42.29404 | 174.20246 | 15572 ft | 291 kts | 223° |
| 2026-05-08 04:54 | -42.31064 | 174.18670 | 15571 ft | 292 kts | 223° |
| 2026-05-08 04:54 | -42.32723 | 174.17084 | 15565 ft | 292 kts | 223° |
| 2026-05-08 04:54 | -42.34381 | 174.15499 | 15554 ft | 292 kts | 223° |
| 2026-05-08 04:54 | -42.36047 | 174.13921 | 15556 ft | 292 kts | 223° |
| 2026-05-08 04:55 | -42.37685 | 174.12362 | 15553 ft | 292 kts | 223° |
| 2026-05-08 04:55 | -42.39350 | 174.10780 | 15545 ft | 292 kts | 223° |
| 2026-05-08 04:55 | -42.41011 | 174.09195 | 15540 ft | 292 kts | 223° |
| 2026-05-08 04:55 | -42.42668 | 174.07606 | 15532 ft | 292 kts | 223° |
| 2026-05-08 04:56 | -42.44322 | 174.06015 | 15529 ft | 292 kts | 223° |
| 2026-05-08 04:56 | -42.45985 | 174.04434 | 15530 ft | 292 kts | 222° |
| 2026-05-08 04:56 | -42.47647 | 174.02858 | 15520 ft | 292 kts | 223° |
| 2026-05-08 04:56 | -42.49302 | 174.01276 | 15516 ft | 291 kts | 223° |
| 2026-05-08 04:57 | -42.50955 | 173.99691 | 15512 ft | 291 kts | 223° |
| 2026-05-08 04:57 | -42.52607 | 173.98109 | 15508 ft | 291 kts | 223° |
| 2026-05-08 04:57 | -42.54258 | 173.96526 | 15503 ft | 290 kts | 223° |
| 2026-05-08 04:57 | -42.55908 | 173.94943 | 15498 ft | 290 kts | 223° |
| 2026-05-08 04:58 | -42.57553 | 173.93361 | 15494 ft | 290 kts | 223° |
| 2026-05-08 04:58 | -42.59197 | 173.91781 | 15494 ft | 290 kts | 223° |
| 2026-05-08 04:58 | -42.60840 | 173.90200 | 15486 ft | 289 kts | 223° |
| 2026-05-08 04:58 | -42.62482 | 173.88619 | 15489 ft | 289 kts | 223° |
| 2026-05-08 04:59 | -42.64120 | 173.87041 | 15489 ft | 289 kts | 223° |
| 2026-05-08 04:59 | -42.65758 | 173.85462 | 15484 ft | 289 kts | 223° |
| 2026-05-08 04:59 | -42.67393 | 173.83880 | 15480 ft | 288 kts | 223° |
| 2026-05-08 04:59 | -42.69027 | 173.82304 | 15478 ft | 288 kts | 223° |
| 2026-05-08 05:00 | -42.70663 | 173.80725 | 15476 ft | 288 kts | 223° |
| 2026-05-08 05:00 | -42.72293 | 173.79149 | 15478 ft | 288 kts | 223° |
| 2026-05-08 05:00 | -42.73921 | 173.77574 | 15472 ft | 287 kts | 223° |
| 2026-05-08 05:00 | -42.75550 | 173.76000 | 15472 ft | 287 kts | 223° |
| 2026-05-08 05:01 | -42.77176 | 173.74426 | 15471 ft | 287 kts | 223° |
| 2026-05-08 05:01 | -42.78799 | 173.72853 | 15473 ft | 287 kts | 223° |
| 2026-05-08 05:01 | -42.80421 | 173.71281 | 15469 ft | 286 kts | 224° |
| 2026-05-08 05:01 | -42.82042 | 173.69709 | 15467 ft | 286 kts | 224° |
| 2026-05-08 05:02 | -42.83662 | 173.68137 | 15464 ft | 286 kts | 224° |
| 2026-05-08 05:02 | -42.85280 | 173.66567 | 15463 ft | 286 kts | 224° |
| 2026-05-08 05:02 | -42.86895 | 173.64998 | 15461 ft | 285 kts | 224° |
| 2026-05-08 05:02 | -42.88510 | 173.63427 | 15465 ft | 285 kts | 224° |
| 2026-05-08 05:03 | -42.90125 | 173.61859 | 15463 ft | 285 kts | 224° |
| 2026-05-08 05:03 | -42.91695 | 173.60245 | 15462 ft | 278 kts | 231° |
| 2026-05-08 05:03 | -42.92956 | 173.58304 | 15453 ft | 271 kts | 240° |
| 2026-05-08 05:03 | -42.94047 | 173.56248 | 15457 ft | 270 kts | 243° |
| 2026-05-08 05:04 | -42.95123 | 173.54145 | 15456 ft | 271 kts | 243° |
| 2026-05-08 05:04 | -42.96215 | 173.52049 | 15458 ft | 271 kts | 242° |
| 2026-05-08 05:04 | -42.97334 | 173.49968 | 15462 ft | 272 kts | 241° |
| 2026-05-08 05:04 | -42.98095 | 173.48568 | 15457 ft | 272 kts | 241° |
| 2026-05-08 05:05 | -42.99593 | 173.45823 | 15455 ft | 272 kts | 241° |
| 2026-05-08 05:05 | -43.00728 | 173.43746 | 15455 ft | 273 kts | 241° |
| 2026-05-08 05:05 | -43.01495 | 173.42348 | 15454 ft | 273 kts | 241° |
| 2026-05-08 05:05 | -43.02635 | 173.40273 | 15444 ft | 273 kts | 241° |
| 2026-05-08 05:06 | -43.03790 | 173.38206 | 15446 ft | 274 kts | 240° |
| 2026-05-08 05:06 | -43.04947 | 173.36146 | 15442 ft | 273 kts | 241° |
| 2026-05-08 05:06 | -43.06070 | 173.34095 | 15448 ft | 273 kts | 242° |
| 2026-05-08 05:06 | -43.07222 | 173.31981 | 15394 ft | 275 kts | 242° |
| 2026-05-08 05:07 | -43.08364 | 173.29877 | 14986 ft | 282 kts | 242° |
| 2026-05-08 05:07 | -43.09541 | 173.27708 | 14504 ft | 285 kts | 241° |
| 2026-05-08 05:07 | -43.10735 | 173.25532 | 14032 ft | 287 kts | 241° |
| 2026-05-08 05:07 | -43.11975 | 173.23372 | 13566 ft | 290 kts | 238° |
| 2026-05-08 05:08 | -43.13331 | 173.21307 | 13085 ft | 292 kts | 236° |
| 2026-05-08 05:08 | -43.14725 | 173.19274 | 12560 ft | 293 kts | 235° |
| 2026-05-08 05:08 | -43.16112 | 173.17251 | 12053 ft | 287 kts | 236° |
| 2026-05-08 05:08 | -43.17435 | 173.15264 | 11547 ft | 278 kts | 237° |
| 2026-05-08 05:09 | -43.18707 | 173.13313 | 11048 ft | 271 kts | 238° |
| 2026-05-08 05:09 | -43.19954 | 173.11409 | 10560 ft | 266 kts | 238° |
| 2026-05-08 05:09 | -43.21179 | 173.09537 | 10083 ft | 261 kts | 238° |
| 2026-05-08 05:09 | -43.22384 | 173.07694 | 9632 ft | 257 kts | 239° |
| 2026-05-08 05:10 | -43.23561 | 173.05901 | 9242 ft | 251 kts | 239° |
| 2026-05-08 05:10 | -43.25856 | 173.02385 | 8334 ft | 245 kts | 239° |
| 2026-05-08 05:10 | -43.26907 | 173.00774 | 8161 ft | 234 kts | 240° |
| 2026-05-08 05:11 | -43.27963 | 172.99168 | 8078 ft | 220 kts | 240° |
| 2026-05-08 05:11 | -43.28962 | 172.97658 | 8035 ft | 207 kts | 241° |
| 2026-05-08 05:11 | -43.29901 | 172.96238 | 8015 ft | 195 kts | 242° |
| 2026-05-08 05:11 | -43.30787 | 172.94895 | 8004 ft | 184 kts | 243° |
| 2026-05-08 05:12 | -43.31624 | 172.93621 | 7999 ft | 175 kts | 244° |
| 2026-05-08 05:12 | -43.32418 | 172.92405 | 7996 ft | 167 kts | 244° |
| 2026-05-08 05:12 | -43.33218 | 172.91158 | 7997 ft | 187 kts | 244° |
| 2026-05-08 05:12 | -43.34113 | 172.89704 | 7999 ft | 210 kts | 243° |
| 2026-05-08 05:13 | -43.35096 | 172.88079 | 7821 ft | 235 kts | 242° |
| 2026-05-08 05:13 | -43.36201 | 172.86310 | 7337 ft | 251 kts | 239° |
| 2026-05-08 05:13 | -43.37392 | 172.84492 | 6856 ft | 261 kts | 238° |
| 2026-05-08 05:13 | -43.38618 | 172.82626 | 6374 ft | 264 kts | 238° |
| 2026-05-08 05:14 | -43.39844 | 172.80772 | 5893 ft | 253 kts | 238° |
| 2026-05-08 05:14 | -43.40988 | 172.79080 | 5388 ft | 232 kts | 238° |
| 2026-05-08 05:14 | -43.42056 | 172.77450 | 4890 ft | 234 kts | 239° |
| 2026-05-08 05:14 | -43.43142 | 172.75735 | 4466 ft | 245 kts | 238° |
| 2026-05-08 05:15 | -43.44266 | 172.73960 | 4252 ft | 239 kts | 238° |
| 2026-05-08 05:15 | -43.45343 | 172.72264 | 3847 ft | 241 kts | 237° |
| 2026-05-08 05:15 | -43.46528 | 172.70530 | 3396 ft | 249 kts | 232° |
| 2026-05-08 05:15 | -43.47756 | 172.68924 | 3163 ft | 243 kts | 230° |
| 2026-05-08 05:16 | -43.48979 | 172.67395 | 3064 ft | 232 kts | 229° |
| 2026-05-08 05:16 | -43.50147 | 172.65930 | 3023 ft | 222 kts | 230° |
| 2026-05-08 05:16 | -43.51229 | 172.64544 | 2999 ft | 200 kts | 232° |
| 2026-05-08 05:16 | -43.52181 | 172.63320 | 2996 ft | 176 kts | 233° |
| 2026-05-08 05:17 | -43.53032 | 172.62188 | 2984 ft | 164 kts | 235° |
| 2026-05-08 05:17 | -43.53828 | 172.61128 | 2972 ft | 155 kts | 235° |
| 2026-05-08 05:17 | -43.54633 | 172.60049 | 2973 ft | 167 kts | 234° |
| 2026-05-08 05:17 | -43.55484 | 172.58886 | 2836 ft | 175 kts | 235° |
| 2026-05-08 05:18 | -43.56354 | 172.57692 | 2697 ft | 178 kts | 232° |
| 2026-05-08 05:18 | -43.57251 | 172.56492 | 2577 ft | 180 kts | 232° |
| 2026-05-08 05:18 | -43.58165 | 172.55319 | 2523 ft | 178 kts | 232° |
| 2026-05-08 05:18 | -43.59065 | 172.54173 | 2499 ft | 174 kts | 231° |
| 2026-05-08 05:19 | -43.59942 | 172.53055 | 2482 ft | 169 kts | 231° |
| 2026-05-08 05:19 | -43.60782 | 172.51967 | 2469 ft | 164 kts | 232° |
| 2026-05-08 05:19 | -43.61642 | 172.50828 | 2453 ft | 182 kts | 232° |
| 2026-05-08 05:19 | -43.62577 | 172.49532 | 2284 ft | 195 kts | 236° |
| 2026-05-08 05:20 | -43.63029 | 172.47871 | 2116 ft | 182 kts | 282° |
| 2026-05-08 05:20 | -43.62758 | 172.46246 | 2046 ft | 168 kts | 298° |
| 2026-05-08 05:20 | -43.62318 | 172.44812 | 2007 ft | 155 kts | 306° |
| 2026-05-08 05:20 | -43.61810 | 172.43566 | 1986 ft | 143 kts | 311° |
| 2026-05-08 05:21 | -43.61272 | 172.42463 | 1978 ft | 137 kts | 316° |
| 2026-05-08 05:21 | -43.60697 | 172.41430 | 1965 ft | 134 kts | 318° |
| 2026-05-08 05:21 | -43.59995 | 172.40819 | 1972 ft | 116 kts | 5° |
| 2026-05-08 05:21 | -43.59283 | 172.41340 | 1981 ft | 117 kts | 28° |
| 2026-05-08 05:22 | -43.58639 | 172.41965 | 1986 ft | 111 kts | 30° |
| 2026-05-08 05:22 | -43.58039 | 172.42617 | 1985 ft | 110 kts | 31° |
| 2026-05-08 05:22 | -43.57445 | 172.43301 | 1969 ft | 112 kts | 32° |
| 2026-05-08 05:22 | -43.56845 | 172.44000 | 1883 ft | 115 kts | 33° |
| 2026-05-08 05:23 | -43.56229 | 172.44712 | 1722 ft | 114 kts | 34° |
| 2026-05-08 05:23 | -43.55652 | 172.45392 | 1553 ft | 105 kts | 33° |
| 2026-05-08 05:23 | -43.55104 | 172.46032 | 1371 ft | 104 kts | 35° |
| 2026-05-08 05:23 | -43.54548 | 172.46678 | 1266 ft | 103 kts | 33° |
| 2026-05-08 05:24 | -43.53996 | 172.47315 | 1052 ft | 104 kts | 35° |
| 2026-05-08 05:24 | -43.53435 | 172.47939 | 908 ft | 105 kts | 36° |
| 2026-05-08 05:24 | -43.52868 | 172.48595 | 833 ft | 107 kts | 38° |
| 2026-05-08 05:24 | -43.52266 | 172.49266 | 750 ft | 114 kts | 39° |
| 2026-05-08 05:25 | -43.51676 | 172.49986 | 650 ft | 110 kts | 41° |
| 2026-05-08 05:25 | -43.51082 | 172.50662 | 487 ft | 114 kts | 40° |
| 2026-05-08 05:25 | -43.50475 | 172.51364 | 373 ft | 113 kts | 42° |
| 2026-05-08 05:25 | -43.49888 | 172.52059 | 193 ft | 106 kts | 43° |
| 2026-05-08 05:26 | -43.49369 | 172.52671 | 117 ft | 85 kts | 43° |
| 2026-05-08 05:26 | -43.49117 | 172.52962 | 111 ft | 34 kts | 38° |
| 2026-05-08 05:26 | -43.48909 | 172.53197 | 107 ft | 18 kts | 46° |
| 2026-05-08 05:26 | -43.48935 | 172.53295 | 107 ft | 13 kts | 139° |
| 2026-05-08 05:27 | -43.49004 | 172.53401 | 107 ft | 12 kts | 108° |
| 2026-05-08 05:27 | -43.48968 | 172.53477 | 107 ft | 15 kts | 41° |
| 2026-05-08 05:27 | -43.48926 | 172.53574 | 105 ft | 10 kts | 117° |
| 2026-05-08 05:27 | -43.48974 | 172.53652 | 104 ft | 18 kts | 127° |
| 2026-05-08 05:28 | -43.49015 | 172.53748 | 106 ft | 4 kts | 50° |
| 2026-05-08 05:28 | -43.48978 | 172.53793 | 105 ft | 4 kts | 49° |
| 2026-05-08 05:28 | -43.48972 | 172.53832 | 106 ft | 2 kts | 119° |
| 2026-05-08 05:28 | -43.48988 | 172.53829 | 104 ft | 0 kts | 240° |